createdAt,value
2023-05-22T00:00:24.586Z,100760.75
2023-05-22T00:02:52.718Z,100759.06
2023-05-22T00:05:21.217Z,100757.28
2023-05-22T00:07:49.269Z,100767.72
2023-05-22T00:10:17.021Z,100767.66
2023-05-22T00:12:45.060Z,100768.56
2023-05-22T00:15:13.602Z,100768.44
2023-05-22T00:17:42.327Z,100772.00
2023-05-22T00:20:11.632Z,100778.16
2023-05-22T00:22:39.599Z,100769.41
2023-05-22T00:25:08.507Z,100775.59
2023-05-22T00:27:36.985Z,100781.69
2023-05-22T00:30:07.493Z,100777.28
2023-05-22T00:32:35.550Z,100777.22
2023-05-22T00:35:03.688Z,100772.81
2023-05-22T00:37:31.335Z,100763.91
2023-05-22T00:39:59.180Z,100768.44
2023-05-22T00:42:27.332Z,100773.66
2023-05-22T00:44:55.288Z,100761.53
2023-05-22T00:47:23.913Z,100767.56
2023-05-22T00:49:52.063Z,100771.03
2023-05-22T00:52:19.755Z,100768.56
2023-05-22T00:54:47.797Z,100767.72
2023-05-22T00:57:15.293Z,100763.34
2023-05-22T00:59:43.469Z,100767.72
2023-05-22T01:02:11.429Z,100772.00
2023-05-22T01:04:39.248Z,100771.91
2023-05-22T01:07:07.007Z,100774.53
2023-05-22T01:09:34.742Z,100771.03
2023-05-22T01:12:30.784Z,100768.56
2023-05-22T01:15:31.031Z,100771.06
2023-05-22T01:18:29.320Z,100769.38
2023-05-22T01:21:07.119Z,100772.00
2023-05-22T01:23:34.118Z,100765.16
2023-05-22T01:26:26.533Z,100762.66
2023-05-22T01:29:10.505Z,100768.78
2023-05-22T01:31:42.281Z,100759.38
2023-05-22T01:34:11.388Z,100755.22
2023-05-22T01:36:38.355Z,100753.53
2023-05-22T01:39:06.834Z,100755.41
2023-05-22T01:41:37.499Z,100758.97
2023-05-22T01:44:05.810Z,100758.22
2023-05-22T01:46:33.839Z,100752.13
2023-05-22T01:49:01.820Z,100753.88
2023-05-22T01:51:50.270Z,100760.94
2023-05-22T01:54:42.234Z,100758.28
2023-05-22T01:57:19.671Z,100760.03
2023-05-22T01:59:46.642Z,100750.50
2023-05-22T02:02:15.225Z,100758.38
2023-05-22T02:04:44.147Z,100754.06
2023-05-22T02:07:12.785Z,100749.75
2023-05-22T02:09:40.619Z,100749.03
2023-05-22T02:12:07.971Z,100749.06
2023-05-22T02:14:35.522Z,100739.44
2023-05-22T02:17:03.389Z,100742.06
2023-05-22T02:19:31.605Z,100742.00
2023-05-22T02:21:59.633Z,100738.53
2023-05-22T02:24:27.460Z,100733.38
2023-05-22T02:26:54.909Z,100736.91
2023-05-22T02:29:22.977Z,100729.19
2023-05-22T02:31:51.001Z,100730.06
2023-05-22T02:34:19.221Z,100737.13
2023-05-22T02:36:47.924Z,100727.69
2023-05-22T02:39:15.818Z,100726.84
2023-05-22T02:41:43.302Z,100738.28
2023-05-22T02:44:11.648Z,100729.63
2023-05-22T02:46:39.828Z,100731.50
2023-05-22T02:49:07.989Z,100737.56
2023-05-22T02:51:38.313Z,100730.56
2023-05-22T02:54:06.582Z,100739.28
2023-05-22T02:56:34.486Z,100729.66
2023-05-22T02:59:02.386Z,100738.41
2023-05-22T03:01:31.313Z,100740.16
2023-05-22T03:03:59.409Z,100737.72
2023-05-22T03:06:27.062Z,100732.44
2023-05-22T03:08:55.048Z,100730.56
2023-05-22T03:11:22.571Z,100738.28
2023-05-22T03:13:50.530Z,100733.00
2023-05-22T03:16:18.502Z,100731.31
2023-05-22T03:18:46.534Z,100728.63
2023-05-22T03:21:14.143Z,100732.09
2023-05-22T03:23:42.118Z,100735.63
2023-05-22T03:26:10.102Z,100726.09
2023-05-22T03:28:38.094Z,100725.28
2023-05-22T03:31:05.910Z,100726.16
2023-05-22T03:33:33.785Z,100730.50
2023-05-22T03:36:01.932Z,100738.41
2023-05-22T03:38:30.072Z,100737.50
2023-05-22T03:40:57.998Z,100734.88
2023-05-22T03:43:25.958Z,100740.16
2023-05-22T03:45:53.967Z,100738.81
2023-05-22T03:48:21.834Z,100730.38
2023-05-22T03:50:49.804Z,100731.47
2023-05-22T03:53:18.036Z,100732.44
2023-05-22T03:55:45.972Z,100733.47
2023-05-22T03:58:13.886Z,100738.81
2023-05-22T04:00:42.606Z,100744.94
2023-05-22T04:03:13.215Z,100745.88
2023-05-22T04:05:40.934Z,100753.69
2023-05-22T04:08:08.903Z,100756.34
2023-05-22T04:10:38.898Z,100755.44
2023-05-22T04:13:07.368Z,100759.81
2023-05-22T04:15:35.436Z,100757.19
2023-05-22T04:18:02.973Z,100753.63
2023-05-22T04:20:30.827Z,100752.69
2023-05-22T04:23:00.885Z,100757.84
2023-05-22T04:25:28.458Z,100756.88
2023-05-22T04:27:56.484Z,100760.22
2023-05-22T04:30:25.760Z,100763.72
2023-05-22T04:32:53.894Z,100756.13
2023-05-22T04:35:22.371Z,100766.59
2023-05-22T04:37:50.293Z,100770.09
2023-05-22T04:40:17.993Z,100767.44
2023-05-22T04:42:45.983Z,100767.38
2023-05-22T04:45:14.109Z,100770.84
2023-05-22T04:47:41.715Z,100770.72
2023-05-22T04:50:10.922Z,100772.28
2023-05-22T04:52:38.658Z,100778.28
2023-05-22T04:55:08.716Z,100768.66
2023-05-22T04:57:36.278Z,100773.88
2023-05-22T05:00:07.511Z,100777.44
2023-05-22T05:02:35.497Z,100774.16
2023-05-22T05:05:03.546Z,100772.06
2023-05-22T05:07:31.811Z,100771.75
2023-05-22T05:09:59.761Z,100774.38
2023-05-22T05:12:27.911Z,100775.19
2023-05-22T05:14:55.648Z,100772.59
2023-05-22T05:17:24.103Z,100771.63
2023-05-22T05:19:52.076Z,100767.31
2023-05-22T05:22:20.348Z,100779.44
2023-05-22T05:24:48.465Z,100774.91
2023-05-22T05:27:17.815Z,100773.06
2023-05-22T05:29:45.894Z,100772.16
2023-05-22T05:32:14.093Z,100776.34
2023-05-22T05:34:41.761Z,100771.00
2023-05-22T05:37:09.986Z,100781.28
2023-05-22T05:39:38.000Z,100781.13
2023-05-22T05:42:06.415Z,100781.81
2023-05-22T05:44:37.080Z,100782.50
2023-05-22T05:47:06.439Z,100777.94
2023-05-22T05:49:35.812Z,100778.69
2023-05-22T05:52:04.442Z,100779.44
2023-05-22T05:54:32.404Z,100787.91
2023-05-22T05:57:00.700Z,100787.66
2023-05-22T05:59:28.946Z,100782.16
2023-05-22T06:01:56.884Z,100783.56
2023-05-22T06:04:24.448Z,100785.13
2023-05-22T06:06:53.246Z,100787.41
2023-05-22T06:09:21.161Z,100788.88
2023-05-22T06:11:49.571Z,100789.78
2023-05-22T06:14:17.501Z,100788.59
2023-05-22T06:16:46.012Z,100790.97
2023-05-22T06:19:13.784Z,100798.66
2023-05-22T06:21:44.859Z,100794.22
2023-05-22T06:24:12.573Z,100794.88
2023-05-22T06:26:40.717Z,100796.41
2023-05-22T06:29:08.668Z,100799.72
2023-05-22T06:31:39.039Z,100794.41
2023-05-22T06:34:07.080Z,100798.47
2023-05-22T06:36:34.883Z,100795.81
2023-05-22T06:39:03.595Z,100798.28
2023-05-22T06:41:32.695Z,100797.38
2023-05-22T06:44:00.699Z,100801.63
2023-05-22T06:46:28.954Z,100802.28
2023-05-22T06:48:56.773Z,100801.25
2023-05-22T06:51:24.625Z,100801.19
2023-05-22T06:53:52.549Z,100796.28
2023-05-22T06:56:20.534Z,100798.25
2023-05-22T06:58:48.433Z,100798.75
2023-05-22T07:01:16.011Z,100803.00
2023-05-22T07:03:43.839Z,100800.16
2023-05-22T07:06:12.569Z,100797.41
2023-05-22T07:08:40.562Z,100790.19
2023-05-22T07:11:08.700Z,100800.72
2023-05-22T07:13:36.565Z,100793.66
2023-05-22T07:16:04.950Z,100798.75
2023-05-22T07:18:33.182Z,100795.06
2023-05-22T07:21:01.306Z,100807.28
2023-05-22T07:23:29.372Z,100800.69
2023-05-22T07:25:57.367Z,100808.59
2023-05-22T07:28:24.834Z,100806.63
2023-05-22T07:30:52.521Z,100804.78
2023-05-22T07:33:20.518Z,100801.94
2023-05-22T07:35:48.579Z,100812.41
2023-05-22T07:38:16.504Z,100808.81
2023-05-22T07:40:44.388Z,100805.25
2023-05-22T07:43:19.528Z,100807.91
2023-05-22T07:45:48.017Z,100806.13
2023-05-22T07:48:16.067Z,100806.69
2023-05-22T07:50:45.582Z,100803.00
2023-05-22T07:53:13.931Z,100808.03
2023-05-22T07:55:41.797Z,100811.56
2023-05-22T07:58:10.884Z,100805.28
2023-05-22T08:00:42.578Z,100809.75
2023-05-22T08:03:10.287Z,100807.91
2023-05-22T08:05:38.153Z,100810.03
2023-05-22T08:08:05.797Z,100803.66
2023-05-22T08:10:52.224Z,100800.91
2023-05-22T08:13:22.995Z,100804.97
2023-05-22T08:15:50.864Z,100801.09
2023-05-22T08:18:29.618Z,100797.41
2023-05-22T08:20:57.183Z,100806.88
2023-05-22T08:23:25.337Z,100803.00
2023-05-22T08:25:53.461Z,100797.34
2023-05-22T08:28:21.360Z,100792.69
2023-05-22T08:30:49.298Z,100797.34
2023-05-22T08:33:18.170Z,100797.34
2023-05-22T08:35:46.167Z,100797.16
2023-05-22T08:38:13.623Z,100794.28
2023-05-22T08:40:43.963Z,100795.31
2023-05-22T08:43:14.043Z,100788.91
2023-05-22T08:45:42.637Z,100799.13
2023-05-22T08:48:10.313Z,100787.38
2023-05-22T08:50:40.118Z,100798.50
2023-05-22T08:53:08.373Z,100788.91
2023-05-22T08:55:36.729Z,100793.84
2023-05-22T08:58:04.266Z,100791.09
2023-05-22T09:00:32.284Z,100787.00
2023-05-22T09:03:00.462Z,100784.34
2023-05-22T09:05:28.420Z,100786.84
2023-05-22T09:07:58.341Z,100788.44
2023-05-22T09:10:30.827Z,100786.16
2023-05-22T09:13:30.703Z,100788.53
2023-05-22T09:16:01.275Z,100783.13
2023-05-22T09:18:29.783Z,100783.50
2023-05-22T09:21:03.717Z,100784.34
2023-05-22T09:23:34.959Z,100781.03
2023-05-22T09:26:03.292Z,100772.78
2023-05-22T09:28:35.315Z,100769.59
2023-05-22T09:31:04.394Z,100772.91
2023-05-22T09:33:32.413Z,100769.47
2023-05-22T09:35:59.625Z,100776.94
2023-05-22T09:38:32.173Z,100774.31
2023-05-22T09:41:01.108Z,100771.91
2023-05-22T09:43:28.968Z,100777.69
2023-05-22T09:46:01.069Z,100772.69
2023-05-22T09:48:29.024Z,100771.50
2023-05-22T09:50:56.756Z,100769.78
2023-05-22T09:53:48.087Z,100772.75
2023-05-22T09:56:19.223Z,100774.22
2023-05-22T09:58:53.026Z,100773.75
2023-05-22T10:01:22.460Z,100765.28
2023-05-22T10:03:50.521Z,100767.78
2023-05-22T10:06:18.539Z,100764.09
2023-05-22T10:08:49.594Z,100761.50
2023-05-22T10:11:17.418Z,100761.03
2023-05-22T10:13:47.653Z,100766.97
2023-05-22T10:16:16.828Z,100754.63
2023-05-22T10:18:47.760Z,100757.06
2023-05-22T10:21:22.810Z,100758.31
2023-05-22T10:23:51.689Z,100753.78
2023-05-22T10:26:20.147Z,100746.72
2023-05-22T10:28:56.179Z,100750.06
2023-05-22T10:31:42.467Z,100759.28
2023-05-22T10:34:12.526Z,100756.91
2023-05-22T10:36:48.267Z,100751.34
2023-05-22T10:39:43.133Z,100747.81
2023-05-22T10:42:14.171Z,100744.97
2023-05-22T10:44:41.859Z,100746.13
2023-05-22T10:47:30.236Z,100740.97
2023-05-22T10:50:12.196Z,100733.72
2023-05-22T10:52:40.049Z,100741.91
2023-05-22T10:55:12.830Z,100737.31
2023-05-22T10:57:40.689Z,100734.13
2023-05-22T11:00:19.330Z,100734.84
2023-05-22T11:02:46.960Z,100728.13
2023-05-22T11:05:20.054Z,100737.16
2023-05-22T11:07:49.139Z,100735.22
2023-05-22T11:10:26.204Z,100739.38
2023-05-22T11:13:15.445Z,100727.91
2023-05-22T11:15:49.310Z,100734.94
2023-05-22T11:18:17.301Z,100723.72
2023-05-22T11:20:47.255Z,100721.25
2023-05-22T11:23:14.441Z,100722.75
2023-05-22T11:25:42.214Z,100719.56
2023-05-22T11:28:11.502Z,100722.19
2023-05-22T11:30:39.072Z,100714.69
2023-05-22T11:33:06.788Z,100721.22
2023-05-22T11:35:34.423Z,100721.78
2023-05-22T11:38:03.660Z,100721.84
2023-05-22T11:40:31.984Z,100720.31
2023-05-22T11:42:59.504Z,100719.97
2023-05-22T11:45:27.080Z,100713.81
2023-05-22T11:47:55.050Z,100713.53
2023-05-22T11:50:33.479Z,100715.59
2023-05-22T11:53:09.528Z,100715.34
2023-05-22T11:55:37.623Z,100710.13
2023-05-22T11:58:05.559Z,100708.63
2023-05-22T12:00:33.835Z,100699.31
2023-05-22T12:03:02.074Z,100707.50
2023-05-22T12:05:32.406Z,100715.34
2023-05-22T12:08:00.415Z,100703.72
2023-05-22T12:10:28.318Z,100700.50
2023-05-22T12:12:55.452Z,100696.69
2023-05-22T12:15:23.934Z,100705.09
2023-05-22T12:17:54.930Z,100699.53
2023-05-22T12:20:23.247Z,100703.50
2023-05-22T12:22:50.859Z,100699.81
2023-05-22T12:25:18.359Z,100693.00
2023-05-22T12:27:46.115Z,100705.53
2023-05-22T12:30:15.456Z,100708.81
2023-05-22T12:32:47.711Z,100703.31
2023-05-22T12:35:19.229Z,100708.78
2023-05-22T12:38:13.668Z,100705.03
2023-05-22T12:40:42.025Z,100697.09
2023-05-22T12:43:10.543Z,100698.13
2023-05-22T12:45:38.112Z,100694.44
2023-05-22T12:48:06.190Z,100705.16
2023-05-22T12:50:34.066Z,100697.88
2023-05-22T12:53:22.557Z,100685.94
2023-05-22T12:55:50.138Z,100690.50
2023-05-22T12:58:18.408Z,100687.69
2023-05-22T13:00:45.891Z,100687.00
2023-05-22T13:03:13.726Z,100690.41
2023-05-22T13:05:42.055Z,100687.44
2023-05-22T13:08:10.708Z,100682.63
2023-05-22T13:10:38.566Z,100674.44
2023-05-22T13:13:06.574Z,100672.81
2023-05-22T13:15:34.440Z,100672.53
2023-05-22T13:18:02.591Z,100678.63
2023-05-22T13:20:30.684Z,100672.56
2023-05-22T13:22:58.609Z,100681.16
2023-05-22T13:25:26.232Z,100664.69
2023-05-22T13:27:54.195Z,100673.75
2023-05-22T13:30:22.101Z,100670.47
2023-05-22T13:32:49.661Z,100670.13
2023-05-22T13:35:19.881Z,100663.09
2023-05-22T13:37:47.190Z,100659.38
2023-05-22T13:40:15.995Z,100660.13
2023-05-22T13:42:43.540Z,100656.66
2023-05-22T13:45:13.101Z,100650.00
2023-05-22T13:47:41.063Z,100651.00
2023-05-22T13:50:11.176Z,100645.25
2023-05-22T13:52:38.870Z,100644.28
2023-05-22T13:55:08.257Z,100639.72
2023-05-22T13:57:37.134Z,100636.78
2023-05-22T14:00:06.406Z,100629.28
2023-05-22T14:02:34.557Z,100628.50
2023-05-22T14:05:02.258Z,100628.59
2023-05-22T14:07:30.196Z,100629.22
2023-05-22T14:10:01.081Z,100628.94
2023-05-22T14:12:28.686Z,100620.25
2023-05-22T14:14:56.598Z,100615.91
2023-05-22T14:17:25.134Z,100612.50
2023-05-22T14:19:53.042Z,100623.91
2023-05-22T14:22:20.916Z,100617.28
2023-05-22T14:24:48.760Z,100612.06
2023-05-22T14:27:16.741Z,100617.84
2023-05-22T14:29:48.288Z,100612.94
2023-05-22T14:32:16.300Z,100601.81
2023-05-22T14:34:44.045Z,100599.44
2023-05-22T14:37:12.341Z,100594.41
2023-05-22T14:39:40.396Z,100599.88
2023-05-22T14:42:09.006Z,100593.41
2023-05-22T14:44:36.575Z,100592.47
2023-05-22T14:47:04.620Z,100594.56
2023-05-22T14:49:32.630Z,100594.13
2023-05-22T14:52:00.188Z,100598.84
2023-05-22T14:54:27.740Z,100587.66
2023-05-22T14:56:56.208Z,100584.97
2023-05-22T14:59:24.697Z,100593.94
2023-05-22T15:01:52.543Z,100583.66
2023-05-22T15:04:20.104Z,100588.28
2023-05-22T15:06:47.729Z,100577.66
2023-05-22T15:09:15.481Z,100581.22
2023-05-22T15:11:45.854Z,100583.63
2023-05-22T15:14:13.688Z,100573.19
2023-05-22T15:16:41.681Z,100571.72
2023-05-22T15:19:09.529Z,100571.16
2023-05-22T15:21:37.700Z,100568.72
2023-05-22T15:24:06.622Z,100561.59
2023-05-22T15:26:34.597Z,100567.66
2023-05-22T15:29:02.283Z,100558.47
2023-05-22T15:31:30.729Z,100564.38
2023-05-22T15:33:58.733Z,100557.47
2023-05-22T15:36:27.849Z,100558.34
2023-05-22T15:38:55.480Z,100556.94
2023-05-22T15:41:23.090Z,100562.59
2023-05-22T15:43:52.230Z,100555.25
2023-05-22T15:46:20.553Z,100557.00
2023-05-22T15:48:48.181Z,100557.72
2023-05-22T15:51:16.075Z,100561.31
2023-05-22T15:53:43.997Z,100557.91
2023-05-22T15:56:12.305Z,100557.56
2023-05-22T15:58:40.246Z,100553.34
2023-05-22T16:01:12.320Z,100555.13
2023-05-22T16:03:40.470Z,100557.91
2023-05-22T16:06:08.326Z,100556.06
2023-05-22T16:08:35.950Z,100554.94
2023-05-22T16:11:03.690Z,100561.91
2023-05-22T16:13:30.865Z,100552.56
2023-05-22T16:15:58.443Z,100555.66
2023-05-22T16:18:25.912Z,100556.91
2023-05-22T16:20:53.673Z,100552.66
2023-05-22T16:23:21.193Z,100560.00
2023-05-22T16:25:50.798Z,100555.28
2023-05-22T16:28:18.922Z,100550.34
2023-05-22T16:30:46.928Z,100555.00
2023-05-22T16:33:14.872Z,100556.56
2023-05-22T16:35:46.905Z,100555.56
2023-05-22T16:38:15.080Z,100551.94
2023-05-22T16:40:43.014Z,100553.38
2023-05-22T16:43:10.836Z,100555.72
2023-05-22T16:45:39.496Z,100562.69
2023-05-22T16:48:08.658Z,100558.38
2023-05-22T16:50:36.247Z,100561.94
2023-05-22T16:53:04.548Z,100561.66
2023-05-22T16:55:32.597Z,100559.84
2023-05-22T16:58:00.563Z,100562.19
2023-05-22T17:00:28.376Z,100565.03
2023-05-22T17:02:56.560Z,100558.66
2023-05-22T17:05:24.743Z,100565.38
2023-05-22T17:07:52.813Z,100564.25
2023-05-22T17:10:20.898Z,100572.41
2023-05-22T17:12:48.825Z,100569.44
2023-05-22T17:15:16.778Z,100570.75
2023-05-22T17:17:44.478Z,100580.91
2023-05-22T17:20:13.333Z,100577.66
2023-05-22T17:22:41.390Z,100577.59
2023-05-22T17:25:11.171Z,100585.06
2023-05-22T17:27:39.234Z,100589.84
2023-05-22T17:30:09.761Z,100587.31
2023-05-22T17:32:37.947Z,100587.97
2023-05-22T17:35:07.804Z,100590.91
2023-05-22T17:37:34.940Z,100600.09
2023-05-22T17:40:02.389Z,100593.50
2023-05-22T17:42:30.128Z,100603.19
2023-05-22T17:44:58.159Z,100601.47
2023-05-22T17:47:26.100Z,100606.03
2023-05-22T17:49:53.781Z,100609.22
2023-05-22T17:52:21.367Z,100621.34
2023-05-22T17:54:50.073Z,100617.03
2023-05-22T17:57:18.322Z,100618.59
2023-05-22T17:59:46.315Z,100616.47
2023-05-22T18:02:14.001Z,100616.78
2023-05-22T18:04:41.727Z,100625.63
2023-05-22T18:07:09.998Z,100616.38
2023-05-22T18:09:37.927Z,100619.56
2023-05-22T18:12:08.099Z,100625.00
2023-05-22T18:14:37.109Z,100630.84
2023-05-22T18:17:12.092Z,100633.09
2023-05-22T18:19:40.459Z,100634.00
2023-05-22T18:22:08.633Z,100634.63
2023-05-22T18:24:38.197Z,100639.00
2023-05-22T18:27:06.667Z,100644.56
2023-05-22T18:29:34.267Z,100649.34
2023-05-22T18:32:02.251Z,100656.25
2023-05-22T18:34:30.228Z,100659.84
2023-05-22T18:36:59.570Z,100661.47
2023-05-22T18:39:27.210Z,100663.09
2023-05-22T18:41:55.049Z,100661.91
2023-05-22T18:44:23.377Z,100666.19
2023-05-22T18:46:50.651Z,100666.91
2023-05-22T18:49:18.637Z,100658.09
2023-05-22T18:51:46.524Z,100667.00
2023-05-22T18:54:14.547Z,100672.81
2023-05-22T18:56:42.486Z,100669.44
2023-05-22T18:59:10.418Z,100673.13
2023-05-22T19:01:38.766Z,100676.34
2023-05-22T19:04:10.072Z,100680.22
2023-05-22T19:06:38.060Z,100682.69
2023-05-22T19:09:05.817Z,100687.28
2023-05-22T19:11:33.558Z,100685.97
2023-05-22T19:14:01.031Z,100691.22
2023-05-22T19:16:28.666Z,100691.56
2023-05-22T19:18:56.841Z,100692.06
2023-05-22T19:21:26.392Z,100695.94
2023-05-22T19:23:54.581Z,100701.31
2023-05-22T19:26:22.128Z,100700.38
2023-05-22T19:28:50.077Z,100705.56
2023-05-22T19:31:18.395Z,100699.47
2023-05-22T19:33:46.322Z,100704.63
2023-05-22T19:36:13.900Z,100711.03
2023-05-22T19:38:42.488Z,100708.94
2023-05-22T19:41:10.485Z,100711.41
2023-05-22T19:43:38.026Z,100710.97
2023-05-22T19:46:08.561Z,100715.06
2023-05-22T19:48:36.603Z,100717.47
2023-05-22T19:51:05.222Z,100719.94
2023-05-22T19:53:32.922Z,100728.34
2023-05-22T19:56:05.343Z,100727.44
2023-05-22T19:58:33.044Z,100721.75
2023-05-22T20:01:00.868Z,100726.00
2023-05-22T20:03:28.893Z,100736.44
2023-05-22T20:05:56.657Z,100721.47
2023-05-22T20:08:25.560Z,100731.19
2023-05-22T20:10:53.376Z,100735.91
2023-05-22T20:13:21.324Z,100733.78
2023-05-22T20:15:51.201Z,100735.97
2023-05-22T20:18:19.258Z,100731.22
2023-05-22T20:20:47.574Z,100736.41
2023-05-22T20:23:16.174Z,100739.88
2023-05-22T20:25:43.743Z,100736.25
2023-05-22T20:28:11.830Z,100738.63
2023-05-22T20:30:39.714Z,100740.13
2023-05-22T20:33:07.477Z,100746.19
2023-05-22T20:35:35.517Z,100748.81
2023-05-22T20:38:03.508Z,100745.59
2023-05-22T20:40:35.075Z,100744.75
2023-05-22T20:43:02.985Z,100742.25
2023-05-22T20:45:31.102Z,100744.97
2023-05-22T20:47:58.776Z,100742.41
2023-05-22T20:50:26.614Z,100738.13
2023-05-22T20:52:54.710Z,100745.34
2023-05-22T20:55:22.670Z,100750.81
2023-05-22T20:57:50.504Z,100750.91
2023-05-22T21:00:19.204Z,100754.56
2023-05-22T21:02:47.235Z,100752.06
2023-05-22T21:05:14.776Z,100754.88
2023-05-22T21:07:42.220Z,100752.34
2023-05-22T21:10:12.484Z,100745.34
2023-05-22T21:12:40.486Z,100748.13
2023-05-22T21:15:09.849Z,100751.22
2023-05-22T21:17:37.697Z,100760.28
2023-05-22T21:20:07.051Z,100756.22
2023-05-22T21:22:35.000Z,100754.69
2023-05-22T21:25:02.997Z,100757.31
2023-05-22T21:27:31.031Z,100762.56
2023-05-22T21:29:59.015Z,100763.56
2023-05-22T21:32:27.186Z,100756.66
2023-05-22T21:34:55.167Z,100758.63
2023-05-22T21:37:22.628Z,100758.88
2023-05-22T21:40:10.438Z,100757.41
2023-05-22T21:42:46.730Z,100757.47
2023-05-22T21:45:15.089Z,100758.28
2023-05-22T21:50:18.856Z,100761.41
2023-05-22T21:52:46.843Z,100758.88
2023-05-22T21:55:15.206Z,100764.28
2023-05-22T21:57:42.801Z,100762.53
2023-05-22T22:00:16.169Z,100757.41
2023-05-22T22:02:44.213Z,100759.06
2023-05-22T22:05:11.881Z,100756.31
2023-05-22T22:07:39.824Z,100761.56
2023-05-22T22:10:09.472Z,100754.72
2023-05-22T22:12:37.626Z,100752.16
2023-05-22T22:15:07.399Z,100750.56
2023-05-22T22:17:35.313Z,100747.13
2023-05-22T22:20:03.366Z,100750.59
2023-05-22T22:22:31.010Z,100753.09
2023-05-22T22:24:59.311Z,100748.78
2023-05-22T22:27:26.975Z,100750.50
2023-05-22T22:29:54.690Z,100750.59
2023-05-22T22:32:22.527Z,100750.78
2023-05-22T22:34:53.863Z,100742.13
2023-05-22T22:37:22.064Z,100746.41
2023-05-22T22:39:50.178Z,100750.72
2023-05-22T22:42:18.350Z,100752.47
2023-05-22T22:44:45.847Z,100742.88
2023-05-22T22:47:13.916Z,100744.53
2023-05-22T22:49:42.459Z,100745.34
2023-05-22T22:52:09.635Z,100747.03
2023-05-22T22:54:37.813Z,100742.72
2023-05-22T22:57:06.799Z,100745.34
2023-05-22T22:59:35.660Z,100741.97
2023-05-22T23:02:04.193Z,100735.06
2023-05-22T23:04:32.285Z,100741.19
2023-05-22T23:06:59.992Z,100733.50
2023-05-22T23:09:28.037Z,100739.69
2023-05-22T23:11:56.177Z,100739.69
2023-05-22T23:14:24.846Z,100735.41
2023-05-22T23:16:52.734Z,100737.19
2023-05-22T23:19:21.029Z,100735.63
2023-05-22T23:21:48.802Z,100735.91
2023-05-22T23:24:16.734Z,100735.25
2023-05-22T23:26:44.701Z,100737.06
2023-05-22T23:29:12.550Z,100743.22
2023-05-22T23:31:40.592Z,100736.41
2023-05-22T23:34:09.055Z,100739.13
2023-05-22T23:36:36.922Z,100733.88
2023-05-22T23:39:05.174Z,100736.50
2023-05-22T23:41:33.475Z,100741.75
2023-05-22T23:44:02.183Z,100740.91
2023-05-22T23:46:30.274Z,100739.13
2023-05-22T23:48:57.968Z,100742.72
2023-05-22T23:51:26.073Z,100747.09
2023-05-22T23:53:54.156Z,100739.22
2023-05-22T23:56:21.820Z,100751.50
2023-05-22T23:58:49.870Z,100752.44
